sensor_id;sensor_type;location;lat;lon;timestamp;pressure;altitude;pressure_sealevel;temperature;humidity
70314;BME280;57725;47.526;18.986;2023-05-21T00:01:43;99959.72;;;19.10;88.30
70314;BME280;57725;47.526;18.986;2023-05-21T00:04:12;99958.88;;;19.09;88.62
70314;BME280;57725;47.526;18.986;2023-05-21T00:06:39;99956.47;;;19.06;88.60
70314;BME280;57725;47.526;18.986;2023-05-21T00:09:05;99950.31;;;19.06;88.48
70314;BME280;57725;47.526;18.986;2023-05-21T00:11:40;99957.31;;;19.07;88.43
70314;BME280;57725;47.526;18.986;2023-05-21T00:14:05;99960.06;;;19.05;88.75
70314;BME280;57725;47.526;18.986;2023-05-21T00:16:33;99967.06;;;19.06;88.61
70314;BME280;57725;47.526;18.986;2023-05-21T00:18:58;99969.81;;;19.05;88.76
70314;BME280;57725;47.526;18.986;2023-05-21T00:21:23;99962.81;;;19.04;88.59
70314;BME280;57725;47.526;18.986;2023-05-21T00:23:51;99962.81;;;19.04;88.70
70314;BME280;57725;47.526;18.986;2023-05-21T00:26:21;99962.03;;;19.03;88.78
70314;BME280;57725;47.526;18.986;2023-05-21T00:28:48;99962.97;;;19.02;88.82
70314;BME280;57725;47.526;18.986;2023-05-21T00:31:16;99963.19;;;18.99;88.76
70314;BME280;57725;47.526;18.986;2023-05-21T00:33:41;99967.44;;;19.02;88.86
70314;BME280;57725;47.526;18.986;2023-05-21T00:36:07;99971.88;;;19.01;88.82
70314;BME280;57725;47.526;18.986;2023-05-21T00:38:41;99972.09;;;18.98;88.87
70314;BME280;57725;47.526;18.986;2023-05-21T00:41:10;99966.81;;;18.98;88.59
70314;BME280;57725;47.526;18.986;2023-05-21T00:43:36;99960.78;;;18.96;88.51
70314;BME280;57725;47.526;18.986;2023-05-21T00:46:06;99964.28;;;18.97;88.95
70314;BME280;57725;47.526;18.986;2023-05-21T00:48:31;99962.56;;;18.96;88.60
70314;BME280;57725;47.526;18.986;2023-05-21T00:50:59;99955.00;;;18.91;88.75
70314;BME280;57725;47.526;18.986;2023-05-21T00:53:25;99959.19;;;18.94;88.76
70314;BME280;57725;47.526;18.986;2023-05-21T00:55:51;99961.00;;;18.93;88.79
70314;BME280;57725;47.526;18.986;2023-05-21T00:58:17;99955.69;;;18.93;88.94
70314;BME280;57725;47.526;18.986;2023-05-21T01:00:43;99954.84;;;18.93;88.86
70314;BME280;57725;47.526;18.986;2023-05-21T01:03:11;99954.16;;;18.91;88.77
70314;BME280;57725;47.526;18.986;2023-05-21T01:05:36;99950.78;;;18.89;88.79
70314;BME280;57725;47.526;18.986;2023-05-21T01:08:05;99963.06;;;18.90;88.85
70314;BME280;57725;47.526;18.986;2023-05-21T01:10:31;99964.00;;;18.89;88.95
70314;BME280;57725;47.526;18.986;2023-05-21T01:12:58;99965.81;;;18.88;88.95
70314;BME280;57725;47.526;18.986;2023-05-21T01:15:26;99952.78;;;18.85;89.15
70314;BME280;57725;47.526;18.986;2023-05-21T01:17:53;99940.28;;;18.87;89.29
70314;BME280;57725;47.526;18.986;2023-05-21T01:20:21;99948.34;;;18.86;89.23
70314;BME280;57725;47.526;18.986;2023-05-21T01:22:51;99945.81;;;18.84;89.14
70314;BME280;57725;47.526;18.986;2023-05-21T01:25:17;99940.72;;;18.81;89.06
70314;BME280;57725;47.526;18.986;2023-05-21T01:27:45;99942.31;;;18.84;89.01
70314;BME280;57725;47.526;18.986;2023-05-21T01:30:14;99943.28;;;18.83;88.94
70314;BME280;57725;47.526;18.986;2023-05-21T01:36:15;99950.38;;;18.82;89.11
70314;BME280;57725;47.526;18.986;2023-05-21T01:41:21;99946.19;;;18.79;89.39
70314;BME280;57725;47.526;18.986;2023-05-21T01:43:47;99946.28;;;18.78;89.50
70314;BME280;57725;47.526;18.986;2023-05-21T01:46:19;99946.28;;;18.78;89.33
70314;BME280;57725;47.526;18.986;2023-05-21T01:48:46;99949.16;;;18.75;89.34
70314;BME280;57725;47.526;18.986;2023-05-21T01:51:13;99948.19;;;18.76;89.35
70314;BME280;57725;47.526;18.986;2023-05-21T01:53:41;99946.50;;;18.75;89.49
70314;BME280;57725;47.526;18.986;2023-05-21T01:56:07;99945.66;;;18.74;89.50
70314;BME280;57725;47.526;18.986;2023-05-21T01:58:32;99943.97;;;18.73;89.71
70314;BME280;57725;47.526;18.986;2023-05-21T02:00:58;99942.28;;;18.72;89.63
70314;BME280;57725;47.526;18.986;2023-05-21T02:03:27;99951.19;;;18.71;89.56
70314;BME280;57725;47.526;18.986;2023-05-21T02:05:54;99947.69;;;18.71;89.75
70314;BME280;57725;47.526;18.986;2023-05-21T02:08:20;99947.69;;;18.71;89.75
70314;BME280;57725;47.526;18.986;2023-05-21T02:10:47;99940.97;;;18.67;89.87
70314;BME280;57725;47.526;18.986;2023-05-21T02:13:13;99939.03;;;18.69;89.66
70314;BME280;57725;47.526;18.986;2023-05-21T02:15:41;99946.25;;;18.67;89.89
70314;BME280;57725;47.526;18.986;2023-05-21T02:18:09;99938.31;;;18.67;89.91
70314;BME280;57725;47.526;18.986;2023-05-21T02:20:35;99927.81;;;18.65;89.87
70314;BME280;57725;47.526;18.986;2023-05-21T02:23:00;99942.88;;;18.65;89.76
70314;BME280;57725;47.526;18.986;2023-05-21T02:25:26;99939.47;;;18.63;89.98
70314;BME280;57725;47.526;18.986;2023-05-21T02:27:51;99939.38;;;18.64;89.77
70314;BME280;57725;47.526;18.986;2023-05-21T02:30:18;99943.81;;;18.64;89.90
70314;BME280;57725;47.526;18.986;2023-05-21T02:32:44;99931.75;;;18.60;89.97
70314;BME280;57725;47.526;18.986;2023-05-21T02:35:11;99934.31;;;18.61;90.00
70314;BME280;57725;47.526;18.986;2023-05-21T02:37:40;99940.44;;;18.62;90.13
70314;BME280;57725;47.526;18.986;2023-05-21T02:40:06;99929.34;;;18.57;90.02
70314;BME280;57725;47.526;18.986;2023-05-21T02:42:38;99929.22;;;18.58;90.03
70314;BME280;57725;47.526;18.986;2023-05-21T02:45:07;99924.03;;;18.57;89.85
70314;BME280;57725;47.526;18.986;2023-05-21T02:47:36;99924.38;;;18.52;90.27
70314;BME280;57725;47.526;18.986;2023-05-21T02:50:05;99932.09;;;18.55;90.08
70314;BME280;57725;47.526;18.986;2023-05-21T02:52:33;99938.34;;;18.54;89.92
70314;BME280;57725;47.526;18.986;2023-05-21T02:54:58;99934.00;;;18.53;89.98
70314;BME280;57725;47.526;18.986;2023-05-21T02:57:24;99933.28;;;18.51;90.09
70314;BME280;57725;47.526;18.986;2023-05-21T02:59:51;99933.16;;;18.53;90.22
70314;BME280;57725;47.526;18.986;2023-05-21T03:02:19;99935.91;;;18.51;90.18
70314;BME280;57725;47.526;18.986;2023-05-21T03:04:45;99943.84;;;18.51;90.34
70314;BME280;57725;47.526;18.986;2023-05-21T03:07:14;99941.44;;;18.48;90.19
70314;BME280;57725;47.526;18.986;2023-05-21T03:09:46;99943.13;;;18.49;90.20
70314;BME280;57725;47.526;18.986;2023-05-21T03:12:13;99937.94;;;18.48;90.30
70314;BME280;57725;47.526;18.986;2023-05-21T03:14:41;99943.22;;;18.48;90.20
70314;BME280;57725;47.526;18.986;2023-05-21T03:17:10;99932.75;;;18.46;90.15
70314;BME280;57725;47.526;18.986;2023-05-21T03:19:39;99933.00;;;18.43;90.25
70314;BME280;57725;47.526;18.986;2023-05-21T03:22:05;99932.06;;;18.44;90.12
70314;BME280;57725;47.526;18.986;2023-05-21T03:24:32;99941.69;;;18.45;90.19
70314;BME280;57725;47.526;18.986;2023-05-21T03:26:58;99931.31;;;18.42;90.47
70314;BME280;57725;47.526;18.986;2023-05-21T03:29:26;99929.63;;;18.41;90.20
70314;BME280;57725;47.526;18.986;2023-05-21T03:31:52;99932.38;;;18.39;90.23
70314;BME280;57725;47.526;18.986;2023-05-21T03:34:20;99929.72;;;18.39;90.10
70314;BME280;57725;47.526;18.986;2023-05-21T03:36:49;99940.31;;;18.39;90.23
70314;BME280;57725;47.526;18.986;2023-05-21T03:39:15;99936.94;;;18.37;90.12
70314;BME280;57725;47.526;18.986;2023-05-21T03:41:43;99936.94;;;18.37;90.44
70314;BME280;57725;47.526;18.986;2023-05-21T03:44:09;99935.34;;;18.35;90.45
70314;BME280;57725;47.526;18.986;2023-05-21T03:46:39;99941.38;;;18.37;90.36
70314;BME280;57725;47.526;18.986;2023-05-21T03:49:07;99938.84;;;18.35;90.11
70314;BME280;57725;47.526;18.986;2023-05-21T03:51:33;99944.13;;;18.35;90.21
70314;BME280;57725;47.526;18.986;2023-05-21T03:54:00;99938.25;;;18.32;90.46
70314;BME280;57725;47.526;18.986;2023-05-21T03:56:28;99937.28;;;18.33;90.17
70314;BME280;57725;47.526;18.986;2023-05-21T03:58:53;99940.91;;;18.32;90.24
70314;BME280;57725;47.526;18.986;2023-05-21T04:01:21;99941.13;;;18.29;90.36
70314;BME280;57725;47.526;18.986;2023-05-21T04:03:46;99943.75;;;18.29;90.33
70314;BME280;57725;47.526;18.986;2023-05-21T04:06:14;99942.81;;;18.30;90.37
70314;BME280;57725;47.526;18.986;2023-05-21T04:08:45;99942.91;;;18.28;90.19
70314;BME280;57725;47.526;18.986;2023-05-21T04:11:10;99948.22;;;18.28;90.18
70314;BME280;57725;47.526;18.986;2023-05-21T04:13:37;99948.31;;;18.27;90.40
70314;BME280;57725;47.526;18.986;2023-05-21T04:16:02;99953.72;;;18.25;90.15
70314;BME280;57725;47.526;18.986;2023-05-21T04:18:28;99950.13;;;18.26;90.11
70314;BME280;57725;47.526;18.986;2023-05-21T04:20:56;99946.03;;;18.22;90.48
70314;BME280;57725;47.526;18.986;2023-05-21T04:23:29;99937.25;;;18.22;90.33
70314;BME280;57725;47.526;18.986;2023-05-21T04:25:55;99946.88;;;18.23;90.21
70314;BME280;57725;47.526;18.986;2023-05-21T04:28:20;99946.03;;;18.22;90.40
70314;BME280;57725;47.526;18.986;2023-05-21T04:30:48;99944.34;;;18.21;90.45
70314;BME280;57725;47.526;18.986;2023-05-21T04:33:14;99944.44;;;18.20;90.19
70314;BME280;57725;47.526;18.986;2023-05-21T04:35:42;99939.16;;;18.20;90.05
70314;BME280;57725;47.526;18.986;2023-05-21T04:38:11;99940.22;;;18.17;90.25
70314;BME280;57725;47.526;18.986;2023-05-21T04:40:39;99940.09;;;18.19;90.24
70314;BME280;57725;47.526;18.986;2023-05-21T04:43:04;99941.91;;;18.18;90.04
70314;BME280;57725;47.526;18.986;2023-05-21T04:45:32;99940.22;;;18.17;90.09
70314;BME280;57725;47.526;18.986;2023-05-21T04:47:57;99944.66;;;18.17;90.21
70314;BME280;57725;47.526;18.986;2023-05-21T04:50:25;99937.66;;;18.16;90.01
70314;BME280;57725;47.526;18.986;2023-05-21T04:52:50;99942.13;;;18.15;90.24
70314;BME280;57725;47.526;18.986;2023-05-21T04:55:18;99944.75;;;18.15;90.25
70314;BME280;57725;47.526;18.986;2023-05-21T04:57:44;99942.13;;;18.15;90.35
70314;BME280;57725;47.526;18.986;2023-05-21T05:00:12;99929.94;;;18.13;90.47
70314;BME280;57725;47.526;18.986;2023-05-21T05:02:37;99930.91;;;18.12;90.45
70314;BME280;57725;47.526;18.986;2023-05-21T05:05:03;99945.81;;;18.13;90.49
70314;BME280;57725;47.526;18.986;2023-05-21T05:07:28;99939.69;;;18.12;90.39
70314;BME280;57725;47.526;18.986;2023-05-21T05:09:56;99935.50;;;18.09;90.52
70314;BME280;57725;47.526;18.986;2023-05-21T05:12:22;99929.34;;;18.09;90.59
70314;BME280;57725;47.526;18.986;2023-05-21T05:14:47;99935.50;;;18.09;90.58
70314;BME280;57725;47.526;18.986;2023-05-21T05:17:18;99932.94;;;18.08;90.46
70314;BME280;57725;47.526;18.986;2023-05-21T05:19:43;99926.06;;;18.05;90.50
70314;BME280;57725;47.526;18.986;2023-05-21T05:22:09;99927.75;;;18.06;90.59
70314;BME280;57725;47.526;18.986;2023-05-21T05:24:34;99930.31;;;18.08;90.87
70314;BME280;57725;47.526;18.986;2023-05-21T05:27:02;99934.75;;;18.07;90.94
70314;BME280;57725;47.526;18.986;2023-05-21T05:29:33;99931.16;;;18.08;91.04
70314;BME280;57725;47.526;18.986;2023-05-21T05:32:01;99935.69;;;18.06;91.13
70314;BME280;57725;47.526;18.986;2023-05-21T05:34:29;99938.34;;;18.06;91.10
70314;BME280;57725;47.526;18.986;2023-05-21T05:36:54;99940.16;;;18.06;91.10
70314;BME280;57725;47.526;18.986;2023-05-21T05:39:21;99940.16;;;18.06;91.16
70314;BME280;57725;47.526;18.986;2023-05-21T05:41:48;99945.44;;;18.06;91.14
70314;BME280;57725;47.526;18.986;2023-05-21T05:44:14;99935.81;;;18.05;91.29
70314;BME280;57725;47.526;18.986;2023-05-21T05:46:42;99936.75;;;18.04;91.18
70314;BME280;57725;47.526;18.986;2023-05-21T05:49:12;99928.09;;;18.02;91.50
70314;BME280;57725;47.526;18.986;2023-05-21T05:51:40;99933.28;;;18.03;91.38
70314;BME280;57725;47.526;18.986;2023-05-21T05:54:08;99924.50;;;18.03;91.30
70314;BME280;57725;47.526;18.986;2023-05-21T05:56:36;99927.25;;;18.01;91.40
70314;BME280;57725;47.526;18.986;2023-05-21T05:59:04;99921.00;;;18.02;91.50
70314;BME280;57725;47.526;18.986;2023-05-21T06:01:29;99917.63;;;18.00;91.72
70314;BME280;57725;47.526;18.986;2023-05-21T06:03:56;99914.84;;;18.02;91.51
70314;BME280;57725;47.526;18.986;2023-05-21T06:06:21;99925.44;;;18.02;91.80
70314;BME280;57725;47.526;18.986;2023-05-21T06:08:47;99917.50;;;18.02;91.96
70314;BME280;57725;47.526;18.986;2023-05-21T06:11:12;99912.22;;;18.02;92.15
70314;BME280;57725;47.526;18.986;2023-05-21T06:13:41;99910.53;;;18.01;92.47
70314;BME280;57725;47.526;18.986;2023-05-21T06:16:09;99907.78;;;18.02;93.09
70314;BME280;57725;47.526;18.986;2023-05-21T06:18:35;99916.22;;;18.07;93.38
70314;BME280;57725;47.526;18.986;2023-05-21T06:21:01;99909.03;;;18.09;93.65
70314;BME280;57725;47.526;18.986;2023-05-21T06:23:28;99911.69;;;18.09;93.97
70314;BME280;57725;47.526;18.986;2023-05-21T06:25:56;99910.47;;;18.14;94.05
70314;BME280;57725;47.526;18.986;2023-05-21T06:28:24;99913.00;;;18.15;94.26
70314;BME280;57725;47.526;18.986;2023-05-21T06:30:50;99908.47;;;18.17;94.09
70314;BME280;57725;47.526;18.986;2023-05-21T06:33:15;99903.06;;;18.19;94.29
70314;BME280;57725;47.526;18.986;2023-05-21T06:35:41;99897.56;;;18.22;94.37
70314;BME280;57725;47.526;18.986;2023-05-21T06:38:06;99895.59;;;18.24;94.61
70314;BME280;57725;47.526;18.986;2023-05-21T06:40:31;99899.09;;;18.24;94.63
70314;BME280;57725;47.526;18.986;2023-05-21T06:42:59;99892.75;;;18.27;94.62
70314;BME280;57725;47.526;18.986;2023-05-21T06:45:24;99884.69;;;18.28;94.93
70314;BME280;57725;47.526;18.986;2023-05-21T06:47:50;99889.88;;;18.30;94.94
70314;BME280;57725;47.526;18.986;2023-05-21T06:50:15;99892.41;;;18.31;94.73
70314;BME280;57725;47.526;18.986;2023-05-21T06:52:43;99893.84;;;18.35;95.10
70314;BME280;57725;47.526;18.986;2023-05-21T06:55:15;99898.19;;;18.36;95.16
70314;BME280;57725;47.526;18.986;2023-05-21T06:57:41;99894.59;;;18.37;95.13
70314;BME280;57725;47.526;18.986;2023-05-21T07:00:08;99892.91;;;18.36;94.69
70314;BME280;57725;47.526;18.986;2023-05-21T07:02:34;99888.34;;;18.38;94.71
70314;BME280;57725;47.526;18.986;2023-05-21T07:05:00;99886.53;;;18.39;94.66
70314;BME280;57725;47.526;18.986;2023-05-21T07:07:25;99885.59;;;18.40;94.09
70314;BME280;57725;47.526;18.986;2023-05-21T07:09:55;99889.19;;;18.39;94.28
70314;BME280;57725;47.526;18.986;2023-05-21T07:12:23;99885.69;;;18.38;94.27
70314;BME280;57725;47.526;18.986;2023-05-21T07:14:51;99881.34;;;18.37;93.86
70314;BME280;57725;47.526;18.986;2023-05-21T07:17:19;99880.50;;;18.37;94.05
70314;BME280;57725;47.526;18.986;2023-05-21T07:19:45;99878.72;;;18.37;93.71
70314;BME280;57725;47.526;18.986;2023-05-21T07:22:10;99881.34;;;18.37;93.76
70314;BME280;57725;47.526;18.986;2023-05-21T07:24:38;99883.16;;;18.37;93.80
70314;BME280;57725;47.526;18.986;2023-05-21T07:27:03;99868.47;;;18.33;93.74
70314;BME280;57725;47.526;18.986;2023-05-21T07:29:34;99875.22;;;18.37;93.60
70314;BME280;57725;47.526;18.986;2023-05-21T07:32:02;99871.72;;;18.36;93.61
70314;BME280;57725;47.526;18.986;2023-05-21T07:34:28;99866.44;;;18.36;93.53
70314;BME280;57725;47.526;18.986;2023-05-21T07:36:59;99863.69;;;18.38;93.48
70314;BME280;57725;47.526;18.986;2023-05-21T07:39:24;99869.81;;;18.38;93.38
70314;BME280;57725;47.526;18.986;2023-05-21T07:41:52;99874.16;;;18.39;93.47
70314;BME280;57725;47.526;18.986;2023-05-21T07:44:20;99867.16;;;18.38;93.46
70314;BME280;57725;47.526;18.986;2023-05-21T07:46:48;99873.31;;;18.39;93.14
70314;BME280;57725;47.526;18.986;2023-05-21T07:49:13;99877.63;;;18.40;93.28
70314;BME280;57725;47.526;18.986;2023-05-21T07:51:41;99875.84;;;18.40;93.11
70314;BME280;57725;47.526;18.986;2023-05-21T07:54:09;99874.03;;;18.41;92.85
70314;BME280;57725;47.526;18.986;2023-05-21T07:56:35;99872.25;;;18.41;93.04
70314;BME280;57725;47.526;18.986;2023-05-21T07:59:03;99870.31;;;18.43;92.98
70314;BME280;57725;47.526;18.986;2023-05-21T08:01:31;99863.22;;;18.44;92.90
70314;BME280;57725;47.526;18.986;2023-05-21T08:03:57;99864.06;;;18.44;92.83
70314;BME280;57725;47.526;18.986;2023-05-21T08:06:24;99863.94;;;18.46;92.84
70314;BME280;57725;47.526;18.986;2023-05-21T08:08:53;99867.44;;;18.46;92.70
70314;BME280;57725;47.526;18.986;2023-05-21T08:11:18;99872.59;;;18.48;92.42
70314;BME280;57725;47.526;18.986;2023-05-21T08:13:47;99871.66;;;18.49;92.65
70314;BME280;57725;47.526;18.986;2023-05-21T08:16:13;99874.19;;;18.51;92.71
70314;BME280;57725;47.526;18.986;2023-05-21T08:18:40;99874.06;;;18.52;92.28
70314;BME280;57725;47.526;18.986;2023-05-21T08:21:09;99864.34;;;18.53;92.39
70314;BME280;57725;47.526;18.986;2023-05-21T08:23:39;99877.47;;;18.54;92.21
70314;BME280;57725;47.526;18.986;2023-05-21T08:26:05;99865.78;;;18.57;92.13
70314;BME280;57725;47.526;18.986;2023-05-21T08:28:31;99871.81;;;18.59;92.11
70314;BME280;57725;47.526;18.986;2023-05-21T08:31:06;99876.16;;;18.60;92.24
70314;BME280;57725;47.526;18.986;2023-05-21T08:33:34;99864.72;;;18.59;92.01
70314;BME280;57725;47.526;18.986;2023-05-21T08:36:02;99875.94;;;18.63;91.89
70314;BME280;57725;47.526;18.986;2023-05-21T08:38:27;99861.84;;;18.62;91.99
70314;BME280;57725;47.526;18.986;2023-05-21T08:40:53;99868.63;;;18.66;92.07
70314;BME280;57725;47.526;18.986;2023-05-21T08:43:19;99866.81;;;18.67;91.82
70314;BME280;57725;47.526;18.986;2023-05-21T08:45:54;99870.19;;;18.69;91.56
70314;BME280;57725;47.526;18.986;2023-05-21T08:48:22;99873.66;;;18.69;91.11
70314;BME280;57725;47.526;18.986;2023-05-21T08:50:53;99873.44;;;18.72;91.60
70314;BME280;57725;47.526;18.986;2023-05-21T08:53:20;99864.75;;;18.70;91.39
70314;BME280;57725;47.526;18.986;2023-05-21T08:55:45;99866.22;;;18.74;91.23
70314;BME280;57725;47.526;18.986;2023-05-21T08:58:11;99858.16;;;18.76;91.33
70314;BME280;57725;47.526;18.986;2023-05-21T09:00:42;99857.19;;;18.77;91.09
70314;BME280;57725;47.526;18.986;2023-05-21T09:03:10;99865.75;;;18.80;91.08
70314;BME280;57725;47.526;18.986;2023-05-21T09:05:39;99860.47;;;18.80;91.01
70314;BME280;57725;47.526;18.986;2023-05-21T09:08:10;99876.84;;;18.86;91.07
70314;BME280;57725;47.526;18.986;2023-05-21T09:10:46;99870.56;;;18.87;90.96
70314;BME280;57725;47.526;18.986;2023-05-21T09:13:13;99859.03;;;18.88;90.77
70314;BME280;57725;47.526;18.986;2023-05-21T09:15:43;99857.94;;;19.46;86.77
70314;BME280;57725;47.526;18.986;2023-05-21T09:18:11;99856.75;;;19.72;82.72
70314;BME280;57725;47.526;18.986;2023-05-21T09:20:36;99864.25;;;19.99;80.97
70314;BME280;57725;47.526;18.986;2023-05-21T09:23:04;99853.16;;;20.05;79.10
70314;BME280;57725;47.526;18.986;2023-05-21T09:25:39;99847.56;;;20.08;77.97
70314;BME280;57725;47.526;18.986;2023-05-21T09:28:10;99850.72;;;20.34;77.38
70314;BME280;57725;47.526;18.986;2023-05-21T09:30:36;99852.00;;;20.51;77.42
70314;BME280;57725;47.526;18.986;2023-05-21T09:33:01;99842.78;;;20.55;76.40
70314;BME280;57725;47.526;18.986;2023-05-21T09:35:27;99854.72;;;20.60;77.15
70314;BME280;57725;47.526;18.986;2023-05-21T09:37:54;99849.06;;;20.54;74.77
70314;BME280;57725;47.526;18.986;2023-05-21T09:40:22;99851.09;;;20.62;77.24
70314;BME280;57725;47.526;18.986;2023-05-21T09:42:52;99848.63;;;20.70;78.24
70314;BME280;57725;47.526;18.986;2023-05-21T09:45:24;99849.22;;;20.73;76.34
70314;BME280;57725;47.526;18.986;2023-05-21T09:47:51;99844.63;;;20.75;75.13
70314;BME280;57725;47.526;18.986;2023-05-21T09:50:19;99839.44;;;20.74;74.67
70314;BME280;57725;47.526;18.986;2023-05-21T09:52:45;99838.75;;;20.81;75.50
70314;BME280;57725;47.526;18.986;2023-05-21T09:55:15;99837.53;;;20.85;74.75
70314;BME280;57725;47.526;18.986;2023-05-21T09:57:48;99849.91;;;20.96;73.81
70314;BME280;57725;47.526;18.986;2023-05-21T10:00:24;99846.81;;;21.01;74.56
70314;BME280;57725;47.526;18.986;2023-05-21T10:02:56;99840.03;;;21.08;73.66
70314;BME280;57725;47.526;18.986;2023-05-21T10:05:26;99828.97;;;21.12;72.83
70314;BME280;57725;47.526;18.986;2023-05-21T10:07:59;99828.22;;;21.21;74.92
70314;BME280;57725;47.526;18.986;2023-05-21T10:10:25;99829.81;;;21.34;74.42
70314;BME280;57725;47.526;18.986;2023-05-21T10:13:12;99823.34;;;21.36;74.26
70314;BME280;57725;47.526;18.986;2023-05-21T10:15:43;99834.72;;;21.48;75.31
70314;BME280;57725;47.526;18.986;2023-05-21T10:18:11;99835.56;;;21.48;73.38
70314;BME280;57725;47.526;18.986;2023-05-21T10:20:37;99829.09;;;21.31;73.13
70314;BME280;57725;47.526;18.986;2023-05-21T10:23:03;99828.25;;;21.31;72.51
70314;BME280;57725;47.526;18.986;2023-05-21T10:25:32;99817.31;;;21.24;69.97
70314;BME280;57725;47.526;18.986;2023-05-21T10:27:59;99816.53;;;21.34;70.36
70314;BME280;57725;47.526;18.986;2023-05-21T10:30:24;99810.63;;;21.30;70.01
70314;BME280;57725;47.526;18.986;2023-05-21T10:32:50;99822.41;;;21.47;70.75
70314;BME280;57725;47.526;18.986;2023-05-21T10:35:18;99822.00;;;21.42;70.53
70314;BME280;57725;47.526;18.986;2023-05-21T10:37:44;99810.53;;;21.51;71.09
70314;BME280;57725;47.526;18.986;2023-05-21T10:40:10;99817.56;;;21.61;68.32
70314;BME280;57725;47.526;18.986;2023-05-21T10:48:47;99815.34;;;21.76;71.37
70314;BME280;57725;47.526;18.986;2023-05-21T10:54:07;99829.75;;;21.64;69.30
70314;BME280;57725;47.526;18.986;2023-05-21T10:56:43;99812.34;;;21.50;68.48
70314;BME280;57725;47.526;18.986;2023-05-21T11:00:02;99820.06;;;21.53;70.47
70314;BME280;57725;47.526;18.986;2023-05-21T11:02:26;99813.91;;;21.62;70.99
70314;BME280;57725;47.526;18.986;2023-05-21T11:05:00;99796.00;;;21.64;69.07
70314;BME280;57725;47.526;18.986;2023-05-21T11:07:56;99795.44;;;21.71;70.27
70314;BME280;57725;47.526;18.986;2023-05-21T11:10:35;99794.63;;;21.80;70.44
70314;BME280;57725;47.526;18.986;2023-05-21T11:13:09;99793.78;;;21.89;68.46
70314;BME280;57725;47.526;18.986;2023-05-21T11:21:04;99802.78;;;22.07;69.68
70314;BME280;57725;47.526;18.986;2023-05-21T11:26:18;99796.78;;;22.15;69.76
70314;BME280;57725;47.526;18.986;2023-05-21T11:28:43;99798.28;;;22.27;71.78
70314;BME280;57725;47.526;18.986;2023-05-21T11:31:23;99797.16;;;22.29;69.81
70314;BME280;57725;47.526;18.986;2023-05-21T11:36:39;99793.25;;;22.04;70.91
70314;BME280;57725;47.526;18.986;2023-05-21T11:39:13;99794.53;;;22.10;71.02
70314;BME280;57725;47.526;18.986;2023-05-21T11:41:51;99791.44;;;22.24;72.02
70314;BME280;57725;47.526;18.986;2023-05-21T11:44:21;99789.31;;;22.18;66.45
70314;BME280;57725;47.526;18.986;2023-05-21T11:47:04;99798.59;;;22.14;65.93
70314;BME280;57725;47.526;18.986;2023-05-21T11:49:30;99790.16;;;22.19;66.70
70314;BME280;57725;47.526;18.986;2023-05-21T11:51:57;99792.28;;;22.15;67.49
70314;BME280;57725;47.526;18.986;2023-05-21T11:54:23;99786.13;;;22.15;65.51
70314;BME280;57725;47.526;18.986;2023-05-21T11:56:50;99796.34;;;22.19;65.97
70314;BME280;57725;47.526;18.986;2023-05-21T11:59:16;99792.41;;;22.23;69.00
70314;BME280;57725;47.526;18.986;2023-05-21T12:01:42;99792.69;;;22.20;68.08
70314;BME280;57725;47.526;18.986;2023-05-21T12:04:10;99782.44;;;22.16;66.80
70314;BME280;57725;47.526;18.986;2023-05-21T12:06:41;99777.44;;;22.13;68.38
70314;BME280;57725;47.526;18.986;2023-05-21T12:09:10;99773.63;;;22.25;65.72
70314;BME280;57725;47.526;18.986;2023-05-21T12:11:40;99763.41;;;22.20;66.53
70314;BME280;57725;47.526;18.986;2023-05-21T12:14:12;99780.09;;;22.22;65.45
70314;BME280;57725;47.526;18.986;2023-05-21T12:16:43;99760.88;;;22.19;67.18
70314;BME280;57725;47.526;18.986;2023-05-21T12:19:08;99766.91;;;22.21;63.50
70314;BME280;57725;47.526;18.986;2023-05-21T12:21:34;99770.13;;;22.24;63.70
70314;BME280;57725;47.526;18.986;2023-05-21T12:24:02;99772.66;;;22.26;63.38
70314;BME280;57725;47.526;18.986;2023-05-21T12:26:28;99766.19;;;22.28;65.44
70314;BME280;57725;47.526;18.986;2023-05-21T12:28:57;99758.50;;;22.25;65.03
70314;BME280;57725;47.526;18.986;2023-05-21T12:31:22;99763.84;;;22.25;66.24
70314;BME280;57725;47.526;18.986;2023-05-21T12:33:49;99747.84;;;22.25;63.38
70314;BME280;57725;47.526;18.986;2023-05-21T12:36:21;99754.13;;;22.34;67.39
70314;BME280;57725;47.526;18.986;2023-05-21T12:38:50;99747.81;;;22.35;65.08
70314;BME280;57725;47.526;18.986;2023-05-21T12:41:16;99752.56;;;22.41;67.18
70314;BME280;57725;47.526;18.986;2023-05-21T12:43:48;99748.06;;;22.51;69.53
70314;BME280;57725;47.526;18.986;2023-05-21T12:46:16;99747.06;;;22.52;67.87
70314;BME280;57725;47.526;18.986;2023-05-21T12:48:52;99744.41;;;22.52;66.86
70314;BME280;57725;47.526;18.986;2023-05-21T12:51:19;99743.13;;;22.56;67.62
70314;BME280;57725;47.526;18.986;2023-05-21T12:53:47;99743.28;;;22.55;70.64
70314;BME280;57725;47.526;18.986;2023-05-21T12:56:13;99739.63;;;22.56;67.00
70314;BME280;57725;47.526;18.986;2023-05-21T12:58:40;99726.88;;;22.59;65.24
70314;BME280;57725;47.526;18.986;2023-05-21T13:01:10;99729.69;;;22.58;66.62
70314;BME280;57725;47.526;18.986;2023-05-21T13:03:40;99733.47;;;22.55;64.99
70314;BME280;57725;47.526;18.986;2023-05-21T13:06:08;99732.25;;;22.50;64.91
70314;BME280;57725;47.526;18.986;2023-05-21T13:08:34;99730.00;;;22.45;66.26
70314;BME280;57725;47.526;18.986;2023-05-21T13:11:02;99729.41;;;22.51;67.70
70314;BME280;57725;47.526;18.986;2023-05-21T13:13:28;99727.03;;;22.58;67.48
70314;BME280;57725;47.526;18.986;2023-05-21T13:15:56;99721.13;;;22.54;67.45
70314;BME280;57725;47.526;18.986;2023-05-21T13:18:24;99718.09;;;22.49;66.36
70314;BME280;57725;47.526;18.986;2023-05-21T13:20:49;99706.72;;;22.47;64.42